Time;durP1;ratioP1;P1;durP2;ratioP2;P2;SDS_P1;SDS_P2;PMS_P1;PMS_P2;Temp;Humidity;BMP_temperature;BMP_pressure;BME280_temperature;BME280_humidity;BME280_pressure;Samples;Min_cycle;Max_cycle;Signal;HPM_P1;HPM_P2
2022/01/25 00:26:47;;;;;;;9.85;4.28;;;22.00;54.90;;;;;;5016741;28;20099;-71
2022/01/25 00:29:26;;;;;;;10.23;5.00;;;22.00;55.10;;;;;;5033438;28;20025;-71
2022/01/25 00:31:52;;;;;;;12.93;5.25;;;22.00;54.90;;;;;;5032907;28;20048;-71
2022/01/25 00:34:17;;;;;;;9.55;5.50;;;22.00;54.90;;;;;;5029652;28;20635;-71
2022/01/25 00:36:43;;;;;;;17.38;6.32;;;22.00;55.70;;;;;;5032797;28;20056;-71
2022/01/25 00:39:09;;;;;;;14.00;5.70;;;22.00;55.40;;;;;;5033630;28;20456;-71
2022/01/25 00:41:35;;;;;;;9.98;5.30;;;22.00;55.80;;;;;;5029757;28;20021;-71
2022/01/25 00:44:02;;;;;;;9.27;5.47;;;22.10;56.50;;;;;;5021449;28;20033;-70
2022/01/25 00:46:28;;;;;;;10.80;4.90;;;22.10;55.80;;;;;;5031744;28;20045;-70
2022/01/25 00:48:59;;;;;;;9.65;4.80;;;22.10;55.80;;;;;;5033589;28;20033;-70
2022/01/25 00:56:28;;;;;;;24.25;5.90;;;22.10;56.70;;;;;;5012459;28;20034;-71
2022/01/25 00:58:55;;;;;;;15.35;5.40;;;22.00;57.20;;;;;;5012518;28;20029;-71
2022/01/25 01:01:21;;;;;;;17.23;4.47;;;22.00;57.00;;;;;;5026337;28;20022;-70
2022/01/25 01:03:47;;;;;;;28.88;5.38;;;22.00;57.20;;;;;;5033604;28;20105;-71
2022/01/25 01:06:15;;;;;;;21.23;6.50;;;22.00;57.30;;;;;;5033247;28;20060;-70
2022/01/25 01:08:41;;;;;;;9.50;4.75;;;22.00;57.30;;;;;;5033198;28;20436;-70
2022/01/25 01:11:16;;;;;;;16.52;4.47;;;22.00;57.40;;;;;;5032697;28;20429;-70
2022/01/25 01:30:13;;;;;;;9.18;4.43;;;21.80;57.20;;;;;;5032617;28;20029;-70
2022/01/25 01:35:51;;;;;;;11.57;4.70;;;21.80;57.20;;;;;;5013173;28;19909;-70
2022/01/25 01:41:22;;;;;;;15.27;4.40;;;21.80;57.30;;;;;;5030536;28;20441;-74
2022/01/25 01:43:53;;;;;;;10.30;4.72;;;21.90;57.30;;;;;;5031962;28;20025;-73
2022/01/25 01:46:33;;;;;;;8.80;4.47;;;21.80;57.30;;;;;;5015159;28;20033;-74
2022/01/25 01:49:01;;;;;;;11.27;4.25;;;21.80;57.30;;;;;;5012645;28;20037;-73
2022/01/25 01:51:34;;;;;;;7.75;4.05;;;21.80;57.50;;;;;;4994941;28;20022;-73
2022/01/25 01:54:10;;;;;;;14.57;3.90;;;21.80;57.50;;;;;;5012620;28;20437;-73
2022/01/25 01:56:37;;;;;;;9.25;4.13;;;21.80;57.70;;;;;;5012256;28;20026;-73
2022/01/25 01:59:07;;;;;;;10.52;4.38;;;21.80;57.60;;;;;;5012720;28;20037;-73
2022/01/25 02:01:35;;;;;;;10.48;4.20;;;21.80;57.70;;;;;;5012456;28;20034;-73
2022/01/25 02:04:03;;;;;;;12.38;3.92;;;21.70;58.20;;;;;;5012365;28;20025;-73
2022/01/25 02:06:28;;;;;;;6.60;3.92;;;21.70;57.90;;;;;;5012546;28;20069;-73
2022/01/25 02:08:55;;;;;;;8.10;3.92;;;21.80;58.10;;;;;;5012006;28;20053;-73
2022/01/25 02:11:21;;;;;;;9.57;4.30;;;21.70;58.30;;;;;;5012179;28;20471;-73
2022/01/25 02:13:48;;;;;;;8.40;3.90;;;21.70;58.70;;;;;;5012321;28;20037;-73
2022/01/25 02:16:33;;;;;;;9.25;3.90;;;21.70;58.70;;;;;;5012397;28;20038;-73
2022/01/25 02:24:32;;;;;;;9.68;4.15;;;21.70;59.00;;;;;;5012349;28;20037;-73
2022/01/25 02:26:57;;;;;;;7.03;3.95;;;21.70;59.40;;;;;;5010902;28;20038;-73
2022/01/25 02:29:25;;;;;;;7.90;3.83;;;21.70;59.10;;;;;;5011956;28;20037;-73
2022/01/25 02:31:53;;;;;;;8.98;4.00;;;21.70;58.80;;;;;;5012402;28;20052;-73
2022/01/25 02:34:18;;;;;;;7.82;4.05;;;21.70;58.90;;;;;;4994685;28;20026;-73
2022/01/25 02:36:44;;;;;;;6.63;3.40;;;21.70;59.10;;;;;;5011986;28;20029;-73
2022/01/25 02:39:10;;;;;;;8.35;4.10;;;21.70;58.70;;;;;;5012075;28;20422;-73
2022/01/25 02:41:37;;;;;;;5.38;3.40;;;21.70;58.80;;;;;;5011232;28;20506;-73
2022/01/25 02:44:04;;;;;;;8.05;3.65;;;21.70;59.30;;;;;;5011903;28;20030;-73
2022/01/25 02:49:08;;;;;;;7.15;3.83;;;21.70;59.40;;;;;;5010916;28;20046;-73
2022/01/25 02:51:40;;;;;;;6.53;3.83;;;21.70;59.30;;;;;;5012000;28;20042;-73
2022/01/25 02:54:08;;;;;;;5.75;3.60;;;21.70;59.10;;;;;;5012079;28;20034;-73
2022/01/25 02:56:36;;;;;;;6.05;3.45;;;21.70;59.30;;;;;;5011544;28;20057;-73
2022/01/25 02:59:04;;;;;;;8.18;3.83;;;21.70;59.60;;;;;;5009430;28;20026;-73
2022/01/25 03:01:31;;;;;;;8.57;3.70;;;21.70;59.60;;;;;;5011656;28;20447;-73
2022/01/25 03:03:56;;;;;;;8.55;3.72;;;21.70;59.70;;;;;;5011915;28;20030;-73
2022/01/25 03:06:24;;;;;;;6.70;3.85;;;21.70;59.50;;;;;;5011750;28;20231;-73
2022/01/25 03:08:50;;;;;;;6.93;3.75;;;21.70;60.00;;;;;;5013764;28;20085;-74
2022/01/25 03:11:18;;;;;;;6.45;3.53;;;21.70;59.60;;;;;;5014294;28;20470;-72
2022/01/25 03:13:50;;;;;;;6.55;3.50;;;21.70;59.60;;;;;;5015611;28;20021;-72
2022/01/25 03:16:22;;;;;;;6.95;4.18;;;21.70;59.40;;;;;;5015800;28;20026;-71
2022/01/25 03:18:49;;;;;;;6.70;4.03;;;21.70;59.40;;;;;;5015555;28;20050;-72
2022/01/25 03:23:44;;;;;;;7.53;3.88;;;21.60;59.40;;;;;;5015651;28;20030;-72
2022/01/25 03:26:10;;;;;;;5.40;3.50;;;21.60;59.50;;;;;;5015658;28;20026;-72
2022/01/25 03:28:36;;;;;;;7.88;4.40;;;21.60;59.40;;;;;;5015372;28;20564;-72
2022/01/25 03:31:02;;;;;;;9.38;3.90;;;21.60;59.70;;;;;;5014845;28;20485;-72
2022/01/25 03:33:28;;;;;;;6.80;3.45;;;21.60;59.30;;;;;;5015345;28;20487;-72
2022/01/25 03:35:53;;;;;;;5.38;3.50;;;21.60;59.30;;;;;;5015324;28;20041;-72
2022/01/25 03:38:19;;;;;;;8.95;3.55;;;21.60;59.30;;;;;;5015160;28;20030;-72
2022/01/25 03:40:46;;;;;;;7.18;3.60;;;21.60;59.40;;;;;;5014939;28;20033;-72
2022/01/25 03:43:14;;;;;;;6.63;3.60;;;21.60;59.30;;;;;;5015321;28;20052;-72
2022/01/25 03:45:44;;;;;;;7.30;3.95;;;21.60;59.20;;;;;;5015228;28;20025;-72
2022/01/25 03:50:40;;;;;;;6.95;3.65;;;21.60;59.20;;;;;;5014817;28;20004;-72
2022/01/25 03:53:07;;;;;;;5.93;3.72;;;21.60;59.10;;;;;;5015083;28;20030;-72
2022/01/25 03:55:33;;;;;;;8.13;3.70;;;21.60;59.20;;;;;;5014939;28;20046;-73
2022/01/25 03:57:59;;;;;;;8.40;3.92;;;21.60;59.00;;;;;;4997360;28;20033;-72
2022/01/25 04:00:25;;;;;;;6.50;3.90;;;21.60;59.10;;;;;;4996948;28;20635;-72
2022/01/25 04:02:56;;;;;;;7.22;3.70;;;21.60;59.30;;;;;;5014728;28;20112;-73
2022/01/25 04:05:33;;;;;;;6.80;3.42;;;21.60;59.20;;;;;;5014280;28;20037;-72
2022/01/25 04:07:59;;;;;;;8.15;3.80;;;21.60;59.20;;;;;;5014710;28;20034;-72
2022/01/25 04:10:25;;;;;;;7.80;3.60;;;21.60;59.00;;;;;;5014367;28;20056;-72
2022/01/25 04:12:51;;;;;;;6.43;3.50;;;21.60;59.00;;;;;;5014729;28;20109;-72
2022/01/25 04:15:17;;;;;;;5.47;3.40;;;21.60;59.10;;;;;;5014608;28;20034;-73
2022/01/25 04:17:47;;;;;;;5.72;3.38;;;21.60;58.90;;;;;;5014446;28;20029;-72
2022/01/25 04:25:23;;;;;;;8.43;3.80;;;21.60;58.70;;;;;;5014381;28;20053;-72
2022/01/25 04:27:49;;;;;;;5.45;3.30;;;21.60;58.70;;;;;;5014446;28;20061;-73
2022/01/25 04:30:14;;;;;;;6.43;3.30;;;21.60;58.60;;;;;;5014106;28;20038;-73
2022/01/25 04:32:44;;;;;;;6.55;4.20;;;21.60;58.80;;;;;;5014481;28;20030;-72
2022/01/25 04:56:50;;;;;;;5.05;3.40;;;21.60;58.50;;;;;;5013767;28;20022;-72
2022/01/25 04:59:54;;;;;;;9.98;3.50;;;21.60;58.80;;;;;;5013778;28;20030;-73
2022/01/25 05:02:26;;;;;;;6.55;3.58;;;21.60;58.60;;;;;;5011542;28;20041;-73
2022/01/25 05:04:59;;;;;;;5.00;3.25;;;21.60;58.30;;;;;;5013699;28;20113;-73
2022/01/25 05:10:07;;;;;;;6.13;3.63;;;21.60;58.40;;;;;;5011220;28;20038;-73
2022/01/25 05:12:53;;;;;;;7.63;3.55;;;21.60;58.30;;;;;;4994010;28;20030;-73
2022/01/25 05:23:15;;;;;;;6.25;3.35;;;21.60;58.40;;;;;;4993955;28;20026;-73
2022/01/25 05:25:40;;;;;;;7.40;3.10;;;21.60;58.40;;;;;;4993758;28;20037;-73
2022/01/25 05:28:06;;;;;;;6.05;3.08;;;21.60;58.20;;;;;;5005572;28;20030;-72
2022/01/25 05:30:32;;;;;;;5.80;3.30;;;21.60;58.50;;;;;;5012275;28;20394;-73
2022/01/25 05:32:58;;;;;;;5.22;3.20;;;21.60;58.20;;;;;;5013095;28;20026;-73
2022/01/25 05:35:23;;;;;;;4.75;2.85;;;21.60;58.40;;;;;;5013318;28;20422;-73
2022/01/25 05:37:49;;;;;;;6.70;3.63;;;21.60;58.50;;;;;;5012901;28;20030;-74
2022/01/25 05:40:26;;;;;;;5.93;3.33;;;21.60;58.20;;;;;;5012646;28;20434;-73
2022/01/25 05:48:31;;;;;;;5.60;3.15;;;21.60;58.20;;;;;;5013124;28;20053;-73
2022/01/25 05:50:58;;;;;;;7.72;3.67;;;21.60;58.60;;;;;;5012402;28;20036;-73
2022/01/25 05:53:24;;;;;;;6.95;3.72;;;21.60;58.10;;;;;;5013018;28;20038;-73
2022/01/25 05:55:50;;;;;;;4.93;3.13;;;21.60;58.80;;;;;;5012699;28;20101;-73
2022/01/25 05:58:16;;;;;;;6.53;3.53;;;21.60;58.30;;;;;;5012632;28;20598;-73
2022/01/25 06:00:42;;;;;;;5.93;3.50;;;21.60;58.40;;;;;;5011826;28;20018;-73
2022/01/25 06:03:07;;;;;;;5.55;3.38;;;21.60;58.40;;;;;;5012714;28;20049;-73
2022/01/25 06:05:34;;;;;;;6.38;3.58;;;21.60;58.40;;;;;;4994858;28;20034;-73
2022/01/25 06:08:00;;;;;;;6.45;3.53;;;21.60;58.70;;;;;;5012559;28;20034;-73
2022/01/25 06:10:26;;;;;;;5.22;3.40;;;21.60;58.20;;;;;;5012315;28;20065;-74
2022/01/25 06:12:52;;;;;;;7.32;3.42;;;21.60;58.60;;;;;;4995032;28;20053;-73
2022/01/25 06:15:19;;;;;;;6.75;3.55;;;21.60;58.60;;;;;;5012439;28;20030;-73
2022/01/25 06:17:45;;;;;;;6.28;3.30;;;21.60;58.50;;;;;;5011715;28;20026;-73
2022/01/25 06:20:12;;;;;;;6.63;3.05;;;21.60;58.50;;;;;;5012077;28;20029;-73
2022/01/25 06:22:38;;;;;;;5.38;3.35;;;21.60;58.50;;;;;;5012419;28;20026;-73
2022/01/25 06:25:05;;;;;;;6.47;3.78;;;21.60;58.40;;;;;;4994799;28;20036;-72
2022/01/25 06:27:30;;;;;;;5.25;3.30;;;21.60;58.50;;;;;;5012306;28;20045;-73
2022/01/25 06:29:56;;;;;;;4.95;3.25;;;21.60;58.60;;;;;;5012033;28;20490;-73
2022/01/25 06:32:22;;;;;;;7.38;3.67;;;21.60;58.50;;;;;;5012214;28;20494;-72
2022/01/25 06:34:48;;;;;;;7.20;4.28;;;21.60;58.30;;;;;;5011805;28;20048;-72
2022/01/25 06:37:14;;;;;;;7.10;3.65;;;21.60;58.80;;;;;;5012003;28;20459;-73
2022/01/25 06:39:40;;;;;;;6.78;3.60;;;21.50;58.20;;;;;;5011931;28;20528;-73
2022/01/25 06:42:07;;;;;;;10.43;3.53;;;21.50;58.40;;;;;;4994587;28;20029;-73
2022/01/25 06:44:35;;;;;;;5.22;3.30;;;21.50;58.30;;;;;;5012154;28;20021;-73
2022/01/25 06:47:01;;;;;;;6.82;3.70;;;21.50;58.50;;;;;;5011730;28;20061;-73
2022/01/25 06:49:27;;;;;;;7.55;3.90;;;21.60;58.70;;;;;;5011631;28;20030;-73
2022/01/25 06:51:53;;;;;;;6.70;3.88;;;21.50;58.30;;;;;;5011413;28;20029;-73
2022/01/25 06:54:19;;;;;;;7.18;3.97;;;21.50;58.40;;;;;;5012033;28;20491;-73
2022/01/25 06:56:45;;;;;;;8.25;3.70;;;21.50;58.10;;;;;;5011782;28;20032;-73
2022/01/25 06:59:10;;;;;;;7.70;3.15;;;21.50;58.50;;;;;;5011913;28;20021;-74
2022/01/25 07:01:36;;;;;;;8.80;4.00;;;21.60;58.60;;;;;;5011459;28;20021;-73
2022/01/25 07:04:02;;;;;;;5.63;3.45;;;21.60;58.30;;;;;;5011993;28;20660;-73
2022/01/25 07:06:28;;;;;;;5.63;3.75;;;21.60;58.40;;;;;;5011530;28;20038;-73
2022/01/25 07:08:55;;;;;;;7.57;3.55;;;21.60;58.40;;;;;;4994338;28;20037;-73
2022/01/25 07:11:21;;;;;;;21.92;11.35;;;21.60;59.20;;;;;;5011420;28;20026;-73
2022/01/25 07:13:47;;;;;;;20.02;12.70;;;21.50;54.90;;;;;;5011776;28;20030;-73
2022/01/25 07:16:13;;;;;;;25.35;12.43;;;21.30;52.90;;;;;;5011665;28;20056;-73
2022/01/25 07:18:39;;;;;;;17.98;10.13;;;21.30;52.50;;;;;;5011641;28;20049;-73
2022/01/25 07:21:05;;;;;;;25.98;9.30;;;21.20;53.30;;;;;;5011598;28;20072;-73
2022/01/25 07:23:31;;;;;;;15.48;8.73;;;21.30;54.10;;;;;;5011450;28;20026;-73
2022/01/25 07:25:57;;;;;;;16.95;7.88;;;21.30;54.80;;;;;;5011835;28;20117;-74
2022/01/25 07:28:23;;;;;;;15.85;7.78;;;21.30;55.10;;;;;;4994017;28;20572;-73
2022/01/25 07:30:49;;;;;;;15.55;7.45;;;21.30;55.50;;;;;;5011421;28;20052;-73
2022/01/25 07:33:15;;;;;;;14.20;6.82;;;21.30;55.60;;;;;;5011592;28;20112;-73
2022/01/25 07:35:41;;;;;;;11.88;6.60;;;21.40;55.80;;;;;;5011777;28;20060;-73
2022/01/25 07:38:08;;;;;;;13.15;6.45;;;21.40;55.80;;;;;;5026635;22;20506;-68
2022/01/25 07:40:35;;;;;;;9.05;5.90;;;21.40;56.00;;;;;;5009862;28;20030;-67
2022/01/25 07:43:02;;;;;;;10.38;6.00;;;21.40;56.10;;;;;;5023478;28;20540;-67
2022/01/25 07:45:34;;;;;;;9.75;5.47;;;21.40;56.10;;;;;;5011213;28;20041;-67
2022/01/25 07:48:01;;;;;;;10.43;5.28;;;21.40;56.30;;;;;;5011399;28;20490;-67
2022/01/25 07:50:27;;;;;;;11.23;5.40;;;21.40;56.30;;;;;;5010970;28;20076;-67
2022/01/25 07:52:54;;;;;;;10.82;5.63;;;21.40;56.40;;;;;;5011356;28;20034;-68
2022/01/25 07:55:19;;;;;;;8.98;5.43;;;21.40;56.50;;;;;;5013540;28;20044;-68
2022/01/25 07:57:45;;;;;;;14.60;5.53;;;21.40;56.40;;;;;;5014413;28;20059;-67
2022/01/25 08:00:12;;;;;;;8.48;5.18;;;21.40;56.50;;;;;;4996838;28;20483;-67
2022/01/25 08:02:41;;;;;;;7.80;5.10;;;21.40;56.40;;;;;;5014747;28;20033;-67
2022/01/25 08:05:08;;;;;;;10.40;4.80;;;21.40;56.70;;;;;;4997369;28;20033;-68
2022/01/25 08:07:33;;;;;;;8.60;4.57;;;21.50;56.50;;;;;;5013420;28;20087;-67
2022/01/25 08:09:59;;;;;;;9.68;4.78;;;21.50;56.50;;;;;;4996860;28;20041;-67
2022/01/25 08:12:25;;;;;;;12.02;4.65;;;21.50;56.60;;;;;;5014023;28;20044;-68
2022/01/25 08:14:53;;;;;;;10.20;4.38;;;21.50;56.70;;;;;;5014302;28;20111;-68
2022/01/25 08:17:19;;;;;;;11.23;5.78;;;21.50;57.40;;;;;;5013140;28;20033;-68
2022/01/25 08:19:45;;;;;;;13.55;6.28;;;21.50;57.00;;;;;;5014153;28;20033;-68
2022/01/25 08:22:11;;;;;;;14.75;8.80;;;21.50;56.70;;;;;;5014367;28;20030;-68
2022/01/25 08:24:37;;;;;;;16.63;7.40;;;21.50;56.30;;;;;;4996615;28;20060;-68
2022/01/25 08:27:03;;;;;;;15.25;7.38;;;21.50;57.00;;;;;;4996549;28;20061;-68
2022/01/25 08:29:28;;;;;;;14.70;8.23;;;21.50;57.30;;;;;;5014205;28;20107;-68
2022/01/25 08:31:54;;;;;;;19.80;8.02;;;21.50;56.90;;;;;;5014168;28;20084;-68
2022/01/25 08:34:20;;;;;;;19.35;9.50;;;21.50;57.00;;;;;;5014194;28;20037;-68
2022/01/25 08:36:46;;;;;;;24.60;8.20;;;21.50;57.90;;;;;;4996619;28;20060;-68
2022/01/25 08:39:12;;;;;;;15.50;8.07;;;21.50;57.10;;;;;;5013577;28;20026;-65
2022/01/25 08:41:39;;;;;;;16.23;9.25;;;21.50;57.20;;;;;;4996208;28;20497;-66
2022/01/25 08:44:05;;;;;;;17.60;8.93;;;21.50;57.80;;;;;;4996488;28;20520;-68
2022/01/25 08:46:32;;;;;;;15.52;7.38;;;21.50;58.00;;;;;;4996394;28;20042;-68
2022/01/25 08:48:58;;;;;;;17.23;8.63;;;21.50;57.60;;;;;;4996245;28;20096;-68
2022/01/25 08:51:24;;;;;;;19.25;7.80;;;21.50;58.10;;;;;;5013475;28;20430;-68
2022/01/25 08:53:50;;;;;;;24.08;8.45;;;21.50;57.80;;;;;;4995778;28;20038;-68
2022/01/25 08:56:15;;;;;;;18.20;7.65;;;21.50;58.00;;;;;;5013606;28;20044;-68
2022/01/25 08:58:41;;;;;;;20.15;8.90;;;21.60;58.10;;;;;;4996262;28;20060;-68
2022/01/25 09:01:07;;;;;;;18.88;7.85;;;21.60;58.50;;;;;;5013367;28;20096;-67
2022/01/25 09:03:33;;;;;;;19.30;9.32;;;21.60;58.80;;;;;;5013353;28;20418;-68
2022/01/25 09:05:59;;;;;;;25.23;10.35;;;21.60;59.80;;;;;;5011329;28;20026;-68
2022/01/25 09:08:27;;;;;;;31.42;10.40;;;21.60;60.10;;;;;;5010919;28;20064;-65
2022/01/25 09:10:58;;;;;;;30.33;10.52;;;21.70;62.50;;;;;;4984160;28;20034;-68
2022/01/25 09:13:24;;;;;;;17.75;7.50;;;21.70;63.20;;;;;;5013369;28;20497;-67
2022/01/25 09:15:50;;;;;;;21.55;8.43;;;21.70;59.80;;;;;;5008126;28;20042;-68
2022/01/25 09:18:16;;;;;;;26.13;9.20;;;21.70;59.80;;;;;;5008945;28;20570;-67
2022/01/25 09:20:42;;;;;;;33.30;10.88;;;21.70;59.60;;;;;;5009647;28;20101;-67
2022/01/25 09:23:08;;;;;;;28.80;10.82;;;21.70;59.80;;;;;;4992411;28;20483;-67
2022/01/25 09:25:34;;;;;;;42.03;12.00;;;21.70;59.70;;;;;;5008735;28;20106;-66
2022/01/25 09:28:01;;;;;;;40.00;13.70;;;21.80;59.90;;;;;;5008041;28;20064;-67
2022/01/25 09:30:27;;;;;;;42.22;13.73;;;21.80;60.00;;;;;;5009965;28;20030;-67
2022/01/25 09:32:54;;;;;;;43.22;13.85;;;21.80;59.90;;;;;;4992599;28;20053;-67
2022/01/25 09:35:19;;;;;;;38.45;13.35;;;21.80;59.90;;;;;;4992976;28;20501;-67
2022/01/25 09:37:52;;;;;;;51.53;17.50;;;21.80;60.10;;;;;;4992371;28;20041;-66
2022/01/25 09:40:22;;;;;;;55.72;15.05;;;21.80;60.40;;;;;;5009792;28;20079;-67
2022/01/25 09:42:54;;;;;;;45.47;13.68;;;21.80;60.40;;;;;;4991435;28;20067;-67
2022/01/25 09:45:20;;;;;;;43.13;13.82;;;21.80;60.10;;;;;;4991677;28;20033;-67
2022/01/25 09:47:47;;;;;;;38.17;11.63;;;21.80;60.30;;;;;;5009140;28;20113;-69
2022/01/25 09:50:14;;;;;;;34.13;11.80;;;21.80;60.10;;;;;;4991874;28;20501;-68
2022/01/25 09:52:44;;;;;;;36.33;11.35;;;21.80;60.30;;;;;;4992228;28;20046;-67
2022/01/25 09:55:13;;;;;;;41.67;12.73;;;21.80;60.40;;;;;;5010291;28;20048;-66
2022/01/25 09:57:39;;;;;;;53.53;14.45;;;21.80;60.70;;;;;;4992312;28;20030;-66
2022/01/25 10:00:07;;;;;;;68.82;14.75;;;21.80;62.30;;;;;;5009597;28;20033;-66
2022/01/25 10:02:39;;;;;;;52.83;14.20;;;21.80;62.70;;;;;;4992570;28;20046;-67
2022/01/25 10:05:16;;;;;;;48.35;12.25;;;21.80;62.40;;;;;;4976489;28;20037;-67
2022/01/25 10:07:42;;;;;;;40.05;11.80;;;21.90;61.70;;;;;;4992193;28;20038;-66
2022/01/25 10:10:09;;;;;;;38.53;13.32;;;21.90;60.10;;;;;;4992382;28;20037;-66
2022/01/25 10:12:35;;;;;;;41.58;14.82;;;22.00;60.40;;;;;;4992710;28;20034;-67
2022/01/25 10:15:01;;;;;;;47.10;13.95;;;22.00;60.20;;;;;;5008778;28;20041;-67
2022/01/25 10:17:35;;;;;;;41.03;13.07;;;22.10;60.90;;;;;;4992132;28;20022;-67
2022/01/25 10:20:01;;;;;;;45.15;12.95;;;22.10;60.20;;;;;;4977097;28;20026;-67
2022/01/25 10:22:27;;;;;;;39.47;14.30;;;22.10;60.10;;;;;;4994984;28;20044;-66
2022/01/25 10:24:53;;;;;;;40.33;12.90;;;22.20;60.40;;;;;;5012004;28;20030;-67
2022/01/25 10:27:59;;;;;;;46.45;12.13;;;22.10;60.50;;;;;;4994527;28;20030;-67
2022/01/25 10:30:11;;;;;;;35.47;12.07;;;22.20;60.60;;;;;;5011602;28;20037;-67
2022/01/25 10:32:39;;;;;;;32.35;11.50;;;22.10;60.70;;;;;;5011983;28;20025;-67
2022/01/25 10:35:16;;;;;;;34.72;11.85;;;22.20;61.00;;;;;;4978297;28;20117;-67
2022/01/25 10:37:44;;;;;;;35.83;11.48;;;22.20;61.00;;;;;;4982010;28;20046;-69
2022/01/25 10:40:10;;;;;;;40.10;11.52;;;22.20;61.20;;;;;;4993142;28;20034;-68
2022/01/25 10:42:36;;;;;;;29.65;9.93;;;22.20;61.20;;;;;;5007720;28;20669;-68
2022/01/25 10:45:06;;;;;;;29.08;10.80;;;22.20;60.80;;;;;;4994473;28;20042;-68
2022/01/25 10:47:48;;;;;;;42.05;12.02;;;22.20;61.50;;;;;;5010805;28;20030;-68
2022/01/25 10:50:17;;;;;;;30.45;11.38;;;22.20;61.20;;;;;;4995159;28;20110;-67
2022/01/25 10:52:44;;;;;;;39.53;12.30;;;22.20;61.40;;;;;;5011749;28;20060;-68
2022/01/25 10:55:10;;;;;;;36.15;13.15;;;22.20;62.10;;;;;;5011769;28;20041;-68
2022/01/25 10:57:37;;;;;;;33.22;13.02;;;22.30;62.70;;;;;;4993824;28;20026;-67
2022/01/25 11:00:10;;;;;;;35.63;13.25;;;22.40;62.10;;;;;;5009206;28;20018;-67
2022/01/25 11:02:56;;;;;;;29.83;11.35;;;22.40;63.10;;;;;;5011500;28;20037;-67
2022/01/25 11:05:22;;;;;;;27.42;10.55;;;22.40;63.00;;;;;;4980864;28;20030;-67
2022/01/25 11:07:48;;;;;;;27.00;10.85;;;22.40;62.10;;;;;;5011680;28;20025;-67
2022/01/25 11:10:16;;;;;;;31.30;10.88;;;22.40;61.70;;;;;;5011120;28;20026;-67
2022/01/25 11:12:58;;;;;;;30.73;10.38;;;22.40;61.50;;;;;;4994183;28;20426;-67
2022/01/25 11:15:24;;;;;;;29.63;10.95;;;22.40;60.90;;;;;;5011690;28;20030;-67
2022/01/25 11:17:49;;;;;;;27.48;10.23;;;22.30;61.20;;;;;;5010380;28;20438;-67
2022/01/25 11:20:15;;;;;;;24.92;9.98;;;22.30;60.10;;;;;;5010946;28;20487;-66
2022/01/25 11:22:42;;;;;;;23.48;10.10;;;22.30;60.00;;;;;;4994225;28;20030;-67
2022/01/25 11:25:08;;;;;;;23.08;9.20;;;22.30;60.20;;;;;;4993803;28;20029;-67
2022/01/25 11:27:36;;;;;;;23.05;9.27;;;22.30;59.70;;;;;;4994160;28;20045;-68
2022/01/25 11:30:16;;;;;;;24.10;9.63;;;22.30;59.40;;;;;;4996004;28;20034;-68
2022/01/25 11:32:46;;;;;;;23.55;9.15;;;22.20;59.50;;;;;;5015410;28;20034;-68
2022/01/25 11:35:14;;;;;;;28.13;8.95;;;22.20;59.50;;;;;;5012710;28;20502;-68
2022/01/25 11:37:43;;;;;;;23.15;9.18;;;22.20;59.30;;;;;;5014740;28;20490;-67
2022/01/25 11:40:29;;;;;;;22.98;8.43;;;22.20;58.80;;;;;;4994113;28;20124;-68
2022/01/25 11:43:04;;;;;;;22.48;8.00;;;22.20;59.40;;;;;;5010838;28;20053;-67
2022/01/25 11:45:37;;;;;;;24.27;8.07;;;22.20;59.10;;;;;;5030353;28;20025;-67
2022/01/25 11:48:03;;;;;;;23.42;7.35;;;22.30;58.90;;;;;;5005336;28;20037;-67
2022/01/25 11:50:34;;;;;;;21.23;8.27;;;22.30;59.20;;;;;;5027305;28;20136;-68
2022/01/25 11:53:06;;;;;;;26.00;7.75;;;22.30;59.00;;;;;;5011879;28;20041;-67
2022/01/25 11:55:46;;;;;;;21.05;7.88;;;22.30;59.20;;;;;;5013527;28;20029;-68
2022/01/25 11:58:33;;;;;;;22.33;7.95;;;22.20;59.20;;;;;;5013023;28;20033;-67
2022/01/25 12:01:01;;;;;;;22.80;7.50;;;22.30;59.60;;;;;;5014264;28;20112;-68
2022/01/25 12:03:37;;;;;;;19.45;7.05;;;22.30;59.50;;;;;;5014692;28;20057;-68
2022/01/25 12:06:21;;;;;;;18.05;6.75;;;22.30;59.20;;;;;;5013630;28;20053;-68
2022/01/25 12:09:10;;;;;;;19.00;6.57;;;22.30;58.40;;;;;;5013284;28;20113;-67
2022/01/25 12:11:51;;;;;;;24.40;7.55;;;22.30;58.90;;;;;;4996376;28;20530;-68
2022/01/25 12:14:22;;;;;;;22.08;7.53;;;22.30;58.50;;;;;;5013031;28;20546;-68
2022/01/25 12:16:57;;;;;;;35.78;10.88;;;22.30;58.30;;;;;;4997057;28;20036;-66
2022/01/25 12:19:48;;;;;;;28.25;9.88;;;22.20;57.70;;;;;;4996421;28;20652;-66
2022/01/25 12:22:47;;;;;;;28.35;8.93;;;22.30;58.80;;;;;;4996220;28;20053;-67
2022/01/25 12:27:43;;;;;;;29.67;8.57;;;22.30;58.50;;;;;;4996725;28;20426;-67
2022/01/25 12:30:18;;;;;;;23.73;8.48;;;22.30;59.70;;;;;;5013905;28;20038;-67
2022/01/25 12:32:51;;;;;;;22.73;8.10;;;22.40;59.50;;;;;;5014042;28;20025;-67
2022/01/25 12:35:19;;;;;;;25.48;8.27;;;22.30;58.70;;;;;;5013952;28;20068;-68
2022/01/25 12:37:55;;;;;;;26.48;9.15;;;22.30;58.40;;;;;;4996198;28;20394;-68
2022/01/25 12:40:24;;;;;;;19.25;7.88;;;22.20;58.20;;;;;;5011330;28;20030;-68
2022/01/25 12:42:54;;;;;;;26.42;8.57;;;22.20;58.10;;;;;;5012689;28;20373;-68
2022/01/25 12:45:22;;;;;;;22.90;9.20;;;22.10;58.00;;;;;;4994583;28;20030;-66
2022/01/25 12:48:05;;;;;;;25.60;8.65;;;22.20;58.20;;;;;;5002590;28;20018;-66
2022/01/25 12:50:34;;;;;;;22.55;8.18;;;22.10;58.10;;;;;;5013602;28;20042;-66
2022/01/25 12:53:01;;;;;;;26.13;8.38;;;22.10;59.00;;;;;;5013159;28;20038;-66
2022/01/25 12:55:34;;;;;;;23.55;8.23;;;22.10;58.60;;;;;;4995871;28;20044;-66
2022/01/25 12:58:01;;;;;;;19.85;7.75;;;22.10;58.40;;;;;;4996215;28;20038;-66
2022/01/25 13:00:30;;;;;;;19.83;7.97;;;22.10;58.40;;;;;;5012059;28;20049;-66
2022/01/25 13:03:13;;;;;;;21.88;8.05;;;22.00;58.30;;;;;;4996227;28;20025;-66
2022/01/25 13:05:49;;;;;;;20.02;8.07;;;22.10;58.40;;;;;;5013588;28;20218;-66
2022/01/25 13:08:29;;;;;;;21.73;8.77;;;22.00;58.30;;;;;;4976001;28;20502;-66
2022/01/25 13:11:37;;;;;;;17.90;7.43;;;22.00;58.40;;;;;;4988542;28;20038;-66
2022/01/25 13:16:46;;;;;;;18.65;7.10;;;22.00;58.50;;;;;;4992907;28;20042;-66
2022/01/25 13:19:14;;;;;;;15.32;7.35;;;22.00;58.50;;;;;;4997693;28;20026;-66
2022/01/25 13:21:52;;;;;;;17.90;7.07;;;22.00;58.50;;;;;;4995000;28;20517;-67
2022/01/25 13:24:21;;;;;;;16.95;6.88;;;22.00;58.50;;;;;;4994662;28;20040;-66
2022/01/25 13:27:08;;;;;;;17.35;6.80;;;22.00;59.00;;;;;;5013431;28;20461;-67
2022/01/25 13:32:28;;;;;;;14.93;6.07;;;22.00;58.50;;;;;;5013258;28;20049;-67
2022/01/25 13:35:12;;;;;;;;;;;22.00;58.50;;;;;;4995844;28;20052;-67
2022/01/25 13:37:37;;;;;;;16.48;6.68;;;21.90;58.30;;;;;;4995266;28;19913;-67
2022/01/25 13:40:04;;;;;;;15.32;6.85;;;21.90;58.40;;;;;;5011412;28;20113;-67
2022/01/25 13:48:07;;;;;;;14.82;6.80;;;21.90;58.30;;;;;;4995404;28;20046;-67
2022/01/25 13:50:38;;;;;;;19.55;6.60;;;21.90;58.30;;;;;;5012395;28;20084;-67
2022/01/25 13:53:05;;;;;;;13.60;6.55;;;21.90;58.30;;;;;;5011987;28;20114;-67
2022/01/25 13:55:31;;;;;;;15.15;6.28;;;21.90;58.50;;;;;;4995204;28;20049;-67
2022/01/25 13:57:57;;;;;;;13.35;6.30;;;21.90;58.60;;;;;;4994966;28;20037;-67
2022/01/25 14:00:24;;;;;;;15.70;6.43;;;21.90;58.40;;;;;;5011014;28;20100;-67
2022/01/25 14:02:56;;;;;;;13.05;5.85;;;21.90;58.40;;;;;;5012539;28;20034;-67
2022/01/25 14:05:23;;;;;;;13.13;5.95;;;21.90;58.90;;;;;;5011470;28;20037;-67
2022/01/25 14:07:55;;;;;;;13.40;5.93;;;21.90;58.40;;;;;;4994153;28;20022;-66
2022/01/25 14:10:26;;;;;;;14.20;6.40;;;21.90;58.40;;;;;;4994670;28;20033;-67
2022/01/25 14:23:55;;;;;;;11.55;5.43;;;21.80;58.30;;;;;;5008612;28;20025;-67
2022/01/25 14:26:28;;;;;;;13.13;5.88;;;21.80;58.20;;;;;;5011037;28;20040;-67
2022/01/25 14:29:02;;;;;;;12.45;5.63;;;21.80;58.30;;;;;;4978779;28;20033;-67
2022/01/25 14:31:28;;;;;;;14.13;5.85;;;21.80;58.20;;;;;;5012032;28;20029;-67
2022/01/25 14:33:55;;;;;;;14.00;5.85;;;21.80;58.20;;;;;;5012085;28;20390;-67
2022/01/25 14:36:23;;;;;;;15.00;5.93;;;21.80;58.20;;;;;;4993910;28;20524;-67
2022/01/25 14:38:52;;;;;;;11.18;5.80;;;21.80;58.20;;;;;;5011712;28;20036;-67
2022/01/25 14:41:31;;;;;;;12.90;5.65;;;21.80;58.10;;;;;;5010778;28;20049;-67
2022/01/25 14:44:06;;;;;;;11.02;5.40;;;21.80;58.40;;;;;;4994422;28;20026;-67
2022/01/25 14:46:36;;;;;;;13.55;5.85;;;21.80;58.10;;;;;;5012088;28;20060;-67
2022/01/25 14:49:08;;;;;;;;;;;21.80;58.10;;;;;;4978473;28;20029;-67
2022/01/25 14:51:43;;;;;;;12.60;5.65;;;21.80;58.00;;;;;;5011479;28;20374;-67
2022/01/25 14:54:16;;;;;;;13.60;5.70;;;21.80;58.00;;;;;;4978474;28;20057;-67
2022/01/25 14:56:51;;;;;;;10.93;5.43;;;21.80;58.10;;;;;;5011651;28;20401;-68
2022/01/25 14:59:32;;;;;;;11.45;5.70;;;21.80;58.00;;;;;;5011638;28;20026;-67
2022/01/25 15:02:13;;;;;;;12.55;5.63;;;21.80;58.00;;;;;;5011780;28;20022;-67